Date,TemperatureHighF,TemperatureAvgF,TemperatureLowF,DewpointHighF,DewpointAvgF,DewpointLowF,HumidityHigh,HumidityAvg,HumidityLow,PressureMaxIn,PressureMinIn,WindSpeedMaxMPH,WindSpeedAvgMPH,GustSpeedMaxMPH,PrecipitationSumIn
2013-11-1,74.8,60.5,50.7,49.0,46.0,44.3,82,61,37,30.17,30.04,3,0,6,0.00
2013-11-2,64.9,56.5,50.2,53.7,49.5,43.9,94,78,65,30.06,29.94,4,1,5,0.00
2013-11-3,64.0,54.4,47.8,48.1,40.3,33.0,86,60,34,30.08,29.96,5,1,8,0.00
2013-11-4,70.3,56.7,45.5,41.0,35.3,18.5,74,49,14,30.11,29.95,4,1,6,0.00
2013-11-5,71.4,58.7,50.0,44.5,37.5,32.9,62,46,28,30.25,30.09,4,1,6,0.00
2013-11-6,72.9,59.8,50.2,44.4,38.9,36.0,64,47,29,30.28,30.19,3,0,4,0.00
2013-11-7,72.7,59.5,52.0,48.5,44.1,38.6,84,58,35,30.20,30.11,4,0,8,0.00
2013-11-8,68.9,56.6,47.3,56.8,50.7,46.1,98,82,60,30.12,29.98,3,0,5,0.00
2013-11-9,70.0,57.4,50.9,52.7,44.9,-99.9,95,71,52,30.09,30.00,3,-35,5,0.00
2013-11-10,63.7,54.8,49.6,53.1,50.5,47.7,97,86,66,30.15,30.06,5,1,8,0.00
2013-11-11,64.9,55.6,48.7,55.3,50.9,47.2,96,85,69,30.18,30.10,2,0,4,0.00
2013-11-12,69.8,62.4,53.8,54.2,49.0,45.1,82,63,43,30.30,30.23,4,0,8,0.00
2013-11-13,64.9,55.4,52.9,53.7,52.1,50.5,97,89,67,30.18,30.14,3,0,6,0.00
2013-11-14,62.6,54.7,49.1,55.5,51.6,44.7,97,90,75,30.15,29.91,3,1,6,0.00
2013-11-15,63.7,52.4,45.1,47.6,43.5,41.1,89,73,47,29.91,29.76,5,1,8,0.00
2013-11-16,63.3,51.4,45.5,49.8,46.7,43.9,97,85,54,29.96,29.80,4,0,7,0.00
2013-11-17,62.4,53.1,48.2,50.4,48.3,46.1,94,84,62,30.13,29.96,4,1,8,0.00
2013-11-18,59.0,51.7,45.7,50.3,47.8,44.9,97,87,71,30.18,30.12,4,1,7,0.00
2013-11-19,59.4,55.4,52.0,55.7,52.4,47.9,98,90,77,30.14,29.97,4,0,7,0.56
2013-11-20,58.1,55.5,51.4,57.8,55.1,51.0,99,98,97,29.98,29.87,3,0,5,0.61
2013-11-21,61.9,55.2,49.3,51.3,37.9,20.9,99,61,24,30.01,29.93,6,2,11,0.04
2013-11-22,70.9,61.0,47.7,26.4,18.1,13.3,43,20,12,30.05,29.92,8,2,11,0.00
2013-11-23,66.2,55.9,49.3,47.1,30.4,20.3,92,43,18,30.14,29.98,5,1,11,0.00
2013-11-24,61.9,51.3,44.1,49.7,45.4,41.3,98,82,57,30.28,30.13,4,0,6,0.00
2013-11-25,65.8,51.6,43.9,48.4,43.2,39.9,90,74,48,30.35,30.28,4,0,6,0.00
2013-11-26,63.0,54.6,48.2,44.7,42.2,38.9,80,64,45,30.30,30.06,3,1,7,0.00
2013-11-27,63.9,56.2,48.7,47.4,44.9,42.3,82,66,53,30.06,29.87,3,1,6,0.00
2013-11-28,68.4,57.6,51.1,48.9,43.7,40.3,71,60,42,30.10,29.90,4,1,6,0.00
2013-11-29,66.7,54.1,47.5,49.8,45.2,40.8,84,73,51,30.24,30.11,3,0,4,0.00
2013-11-30,64.4,52.1,45.5,52.5,47.3,43.3,97,85,62,30.30,30.21,4,0,5,0.00